createdAt,value
2022-09-09T00:01:43.161Z,64.58
2022-09-09T00:04:21.666Z,64.46
2022-09-09T00:07:00.904Z,64.90
2022-09-09T00:09:29.941Z,64.54
2022-09-09T00:12:05.982Z,65.13
2022-09-09T00:14:40.137Z,65.17
2022-09-09T00:17:26.266Z,65.37
2022-09-09T00:20:05.632Z,65.45
2022-09-09T00:22:33.283Z,65.52
2022-09-09T00:25:13.970Z,65.39
2022-09-09T00:27:49.752Z,65.04
2022-09-09T00:30:33.159Z,65.08
2022-09-09T00:33:03.765Z,65.19
2022-09-09T00:35:37.926Z,64.91
2022-09-09T00:38:14.917Z,64.98
2022-09-09T00:40:50.816Z,65.09
2022-09-09T00:43:32.219Z,64.97
2022-09-09T00:46:11.613Z,64.61
2022-09-09T00:49:16.769Z,64.70
2022-09-09T00:51:51.269Z,65.03
2022-09-09T00:54:49.994Z,65.28
2022-09-09T00:57:30.245Z,65.07
2022-09-09T01:00:19.981Z,65.01
2022-09-09T01:03:13.912Z,64.90
2022-09-09T01:05:51.845Z,65.12
2022-09-09T01:08:51.127Z,65.17
2022-09-09T01:11:38.591Z,65.45
2022-09-09T01:14:15.283Z,64.93
2022-09-09T01:16:43.315Z,65.66
2022-09-09T01:19:18.189Z,65.52
2022-09-09T01:22:00.280Z,65.09
2022-09-09T01:24:40.638Z,65.32
2022-09-09T01:27:10.482Z,65.64
2022-09-09T01:29:38.858Z,65.64
2022-09-09T01:32:44.510Z,65.47
2022-09-09T01:35:19.888Z,65.57
2022-09-09T01:37:47.382Z,65.76
2022-09-09T01:40:15.118Z,65.73
2022-09-09T01:42:42.647Z,65.27
2022-09-09T01:45:10.459Z,65.44
2022-09-09T01:47:38.176Z,65.74
2022-09-09T01:50:08.810Z,65.53
2022-09-09T01:52:37.296Z,65.33
2022-09-09T01:55:06.605Z,65.86
2022-09-09T01:57:44.581Z,66.03
2022-09-09T02:00:14.110Z,65.77
2022-09-09T02:03:02.489Z,65.86
2022-09-09T02:05:40.610Z,65.79
2022-09-09T02:08:11.986Z,65.86
2022-09-09T02:11:08.125Z,65.82
2022-09-09T02:13:37.930Z,65.80
2022-09-09T02:16:15.547Z,65.95
2022-09-09T02:18:51.283Z,65.74
2022-09-09T02:21:20.524Z,65.98
2022-09-09T02:23:48.984Z,65.92
2022-09-09T02:26:21.205Z,66.02
2022-09-09T02:28:51.294Z,66.06
2022-09-09T02:31:21.286Z,66.03
2022-09-09T02:33:53.772Z,65.92
2022-09-09T02:36:31.172Z,66.05
2022-09-09T02:38:58.715Z,66.10
2022-09-09T02:41:38.131Z,66.42
2022-09-09T02:44:14.913Z,66.86
2022-09-09T02:46:54.949Z,66.66
2022-09-09T02:49:33.799Z,66.46
2022-09-09T02:52:16.385Z,66.28
2022-09-09T02:54:44.371Z,66.32
2022-09-09T02:57:24.828Z,66.48
2022-09-09T02:59:53.256Z,66.32
2022-09-09T03:02:20.975Z,66.80
2022-09-09T03:04:52.668Z,66.82
2022-09-09T03:07:20.810Z,66.79
2022-09-09T03:09:49.099Z,66.64
2022-09-09T03:12:17.266Z,67.02
2022-09-09T03:14:46.852Z,66.79
2022-09-09T03:17:14.752Z,66.82
2022-09-09T03:19:44.996Z,66.94
2022-09-09T03:22:14.236Z,66.75
2022-09-09T03:24:42.571Z,66.80
2022-09-09T03:27:10.307Z,66.46
2022-09-09T03:29:37.900Z,66.79
2022-09-09T03:32:05.865Z,66.73
2022-09-09T03:34:33.385Z,66.65
2022-09-09T03:37:00.955Z,66.49
2022-09-09T03:39:30.043Z,66.23
2022-09-09T03:41:59.839Z,66.39
2022-09-09T03:44:27.180Z,65.95
2022-09-09T03:46:55.724Z,66.17
2022-09-09T03:49:24.222Z,65.85
2022-09-09T03:51:51.572Z,66.07
2022-09-09T03:54:19.193Z,66.08
2022-09-09T03:56:46.587Z,66.59
2022-09-09T03:59:15.333Z,65.99
2022-09-09T04:01:43.653Z,65.78
2022-09-09T04:04:13.016Z,66.01
2022-09-09T04:06:40.419Z,65.78
2022-09-09T04:09:08.027Z,65.86
2022-09-09T04:11:35.916Z,66.06
2022-09-09T04:14:03.472Z,65.87
2022-09-09T04:16:31.179Z,65.82
2022-09-09T04:19:00.616Z,65.86
2022-09-09T04:21:28.006Z,65.53
2022-09-09T04:23:55.658Z,65.73
2022-09-09T04:26:23.830Z,65.78
2022-09-09T04:28:51.414Z,65.82
2022-09-09T04:31:22.460Z,66.29
2022-09-09T04:33:53.636Z,66.17
2022-09-09T04:36:22.111Z,66.12
2022-09-09T04:38:50.216Z,66.83
2022-09-09T04:41:18.077Z,67.14
2022-09-09T04:43:46.037Z,66.72
2022-09-09T04:46:14.384Z,66.91
2022-09-09T04:48:41.784Z,67.14
2022-09-09T04:51:12.912Z,66.62
2022-09-09T04:53:41.353Z,66.68
2022-09-09T04:56:11.189Z,66.89
2022-09-09T04:58:39.796Z,66.65
2022-09-09T05:01:12.127Z,66.51
2022-09-09T05:03:39.981Z,66.94
2022-09-09T05:06:10.630Z,66.06
2022-09-09T05:08:38.981Z,66.16
2022-09-09T05:11:16.466Z,66.14
2022-09-09T05:13:45.090Z,66.07
2022-09-09T05:16:13.814Z,65.45
2022-09-09T05:18:41.644Z,66.37
2022-09-09T05:21:10.267Z,66.37
2022-09-09T05:23:38.519Z,66.18
2022-09-09T05:26:07.430Z,65.87
2022-09-09T05:28:36.348Z,65.99
2022-09-09T05:31:06.337Z,65.78
2022-09-09T05:33:34.227Z,65.71
2022-09-09T05:36:05.165Z,65.80
2022-09-09T05:38:36.491Z,65.62
2022-09-09T05:41:04.526Z,65.49
2022-09-09T05:43:33.352Z,65.34
2022-09-09T05:46:08.893Z,65.06
2022-09-09T05:48:41.281Z,65.34
2022-09-09T05:51:13.532Z,65.56
2022-09-09T05:53:41.171Z,65.10
2022-09-09T05:56:15.151Z,64.73
2022-09-09T05:59:07.076Z,64.42
2022-09-09T06:01:36.344Z,64.41
2022-09-09T06:04:04.751Z,64.78
2022-09-09T06:06:37.409Z,64.88
2022-09-09T06:09:07.673Z,64.34
2022-09-09T06:11:37.034Z,64.07
2022-09-09T06:14:05.099Z,63.91
2022-09-09T06:16:35.746Z,63.78
2022-09-09T06:19:06.919Z,63.92
2022-09-09T06:21:39.461Z,63.94
2022-09-09T06:24:08.281Z,63.86
2022-09-09T06:26:37.632Z,63.53
2022-09-09T06:29:06.003Z,63.93
2022-09-09T06:31:35.461Z,62.75
2022-09-09T06:34:08.444Z,62.10
2022-09-09T06:36:37.909Z,61.60
2022-09-09T06:39:12.169Z,60.69
2022-09-09T06:41:43.348Z,60.34
2022-09-09T06:44:14.432Z,60.19
2022-09-09T06:46:42.383Z,60.08
2022-09-09T06:49:10.597Z,60.21
2022-09-09T06:51:43.966Z,59.39
2022-09-09T06:54:12.810Z,59.56
2022-09-09T06:56:43.926Z,59.54
2022-09-09T06:59:13.020Z,59.42
2022-09-09T07:01:43.008Z,59.50
2022-09-09T07:04:12.001Z,58.77
2022-09-09T07:06:44.065Z,61.74
2022-09-09T07:09:14.214Z,58.98
2022-09-09T07:11:50.019Z,59.03
2022-09-09T07:14:17.776Z,59.44
2022-09-09T07:16:47.026Z,59.25
2022-09-09T07:19:15.575Z,59.36
2022-09-09T07:21:43.891Z,58.24
2022-09-09T07:24:11.849Z,58.09
2022-09-09T07:26:40.987Z,57.41
2022-09-09T07:29:09.222Z,57.76
2022-09-09T07:31:38.867Z,56.92
2022-09-09T07:34:06.914Z,57.41
2022-09-09T07:36:38.807Z,57.33
2022-09-09T07:39:14.551Z,55.82
2022-09-09T07:41:47.867Z,55.63
2022-09-09T07:44:18.438Z,55.91
2022-09-09T07:46:46.902Z,57.19
2022-09-09T07:49:15.634Z,54.16
2022-09-09T07:51:46.195Z,54.77
2022-09-09T07:54:16.101Z,53.84
2022-09-09T07:56:45.147Z,54.10
2022-09-09T07:59:13.344Z,54.89
2022-09-09T08:01:44.155Z,54.01
2022-09-09T08:04:18.095Z,54.34
2022-09-09T08:06:48.591Z,53.96
2022-09-09T08:09:17.119Z,53.05
2022-09-09T08:11:45.122Z,53.04
2022-09-09T08:14:13.362Z,53.38
2022-09-09T08:16:45.507Z,53.54
2022-09-09T08:19:15.216Z,53.25
2022-09-09T08:21:44.461Z,51.73
2022-09-09T08:24:13.430Z,52.04
2022-09-09T08:26:43.134Z,50.63
2022-09-09T08:29:12.810Z,52.09
2022-09-09T08:31:45.451Z,51.84
2022-09-09T08:34:13.264Z,52.29
2022-09-09T08:36:43.410Z,49.76
2022-09-09T08:39:13.132Z,51.58
2022-09-09T08:42:14.827Z,49.66
2022-09-09T08:45:16.053Z,48.86
2022-09-09T08:48:16.560Z,50.24
2022-09-09T08:50:44.323Z,49.69
2022-09-09T08:53:25.930Z,49.05
2022-09-09T08:56:08.251Z,48.78
2022-09-09T08:58:47.611Z,48.81
2022-09-09T09:01:47.307Z,47.92
2022-09-09T09:04:39.651Z,47.40
2022-09-09T09:07:22.735Z,47.26
2022-09-09T09:10:39.850Z,46.82
2022-09-09T09:13:05.012Z,45.98
2022-09-09T09:15:37.663Z,45.00
2022-09-09T09:18:06.235Z,45.28
2022-09-09T09:20:54.837Z,46.14
2022-09-09T09:23:24.818Z,45.11
2022-09-09T09:26:00.838Z,46.47
2022-09-09T09:28:31.374Z,44.79
2022-09-09T09:31:07.695Z,45.83
2022-09-09T09:33:45.532Z,44.48
2022-09-09T09:36:16.199Z,44.54
2022-09-09T09:41:46.691Z,41.50
2022-09-09T09:44:32.788Z,42.39
2022-09-09T09:47:11.762Z,41.88
2022-09-09T09:49:39.198Z,42.28
2022-09-09T09:52:08.650Z,38.82
2022-09-09T09:54:43.017Z,37.94
2022-09-09T09:57:12.583Z,36.58
2022-09-09T09:59:41.035Z,38.42
2022-09-09T10:02:17.800Z,37.19
2022-09-09T10:04:46.394Z,37.77
2022-09-09T10:07:19.377Z,37.56
2022-09-09T10:09:51.440Z,37.70
2022-09-09T10:12:27.151Z,37.53
2022-09-09T10:15:09.218Z,37.87
2022-09-09T10:18:14.000Z,37.05
2022-09-09T10:21:03.762Z,36.71
2022-09-09T10:23:42.840Z,37.40
2022-09-09T10:26:17.236Z,36.98
2022-09-09T10:29:02.684Z,35.43
2022-09-09T10:32:00.145Z,34.32
2022-09-09T10:35:03.052Z,34.56
2022-09-09T10:37:37.756Z,34.05
2022-09-09T10:40:33.740Z,33.33
2022-09-09T10:43:40.803Z,33.70
2022-09-09T10:46:29.771Z,32.28
2022-09-09T10:49:28.546Z,33.13
2022-09-09T10:52:20.697Z,33.42
2022-09-09T10:55:08.207Z,31.77
2022-09-09T10:57:52.234Z,31.49
2022-09-09T11:00:22.090Z,33.61
2022-09-09T11:03:03.011Z,33.22
2022-09-09T11:05:50.535Z,32.33
2022-09-09T11:11:12.914Z,33.21
2022-09-09T11:13:52.562Z,32.62
2022-09-09T11:16:29.345Z,32.75
2022-09-09T11:19:03.424Z,31.19
2022-09-09T11:21:37.359Z,33.02
2022-09-09T11:24:11.715Z,32.72
2022-09-09T11:26:46.190Z,32.85
2022-09-09T11:29:45.004Z,34.03
2022-09-09T11:32:48.976Z,33.35
2022-09-09T11:35:36.957Z,34.01
2022-09-09T11:38:10.505Z,33.96
2022-09-09T11:40:38.039Z,33.81
2022-09-09T11:43:13.601Z,34.34
2022-09-09T11:45:44.528Z,34.38
2022-09-09T11:48:33.499Z,33.64
2022-09-09T11:51:16.867Z,34.54
2022-09-09T11:53:50.919Z,32.57
2022-09-09T11:56:35.623Z,34.32
2022-09-09T11:59:04.493Z,35.08
2022-09-09T12:01:38.694Z,34.52
2022-09-09T12:04:06.193Z,34.74
2022-09-09T12:06:42.643Z,34.49
2022-09-09T12:09:20.937Z,34.85
2022-09-09T12:11:48.239Z,34.85
2022-09-09T12:14:42.061Z,34.31
2022-09-09T12:17:16.556Z,33.96
2022-09-09T12:19:44.157Z,32.98
2022-09-09T12:22:39.402Z,32.93
2022-09-09T12:25:20.182Z,31.93
2022-09-09T12:28:12.160Z,31.48
2022-09-09T12:30:49.895Z,31.96
2022-09-09T12:33:20.031Z,33.94
2022-09-09T12:35:54.315Z,34.32
2022-09-09T12:38:34.053Z,31.93
2022-09-09T12:41:01.620Z,32.79
2022-09-09T12:43:29.742Z,33.10
2022-09-09T12:46:09.911Z,32.28
2022-09-09T12:48:40.153Z,32.20
2022-09-09T12:51:18.671Z,32.23
2022-09-09T12:53:47.039Z,33.61
2022-09-09T12:56:22.634Z,34.04
2022-09-09T12:58:52.566Z,34.20
2022-09-09T13:01:23.865Z,33.79
2022-09-09T13:03:51.722Z,34.05
2022-09-09T13:06:28.909Z,32.62
2022-09-09T13:09:00.007Z,33.57
2022-09-09T13:11:47.736Z,34.82
2022-09-09T13:14:21.281Z,34.17
2022-09-09T13:16:59.743Z,33.36
2022-09-09T13:19:30.574Z,33.90
2022-09-09T13:21:58.293Z,34.35
2022-09-09T13:24:34.782Z,34.21
2022-09-09T13:27:35.669Z,34.25
2022-09-09T13:30:20.093Z,34.38
2022-09-09T13:32:47.926Z,34.27
2022-09-09T13:35:34.753Z,33.77
2022-09-09T13:38:10.507Z,33.21
2022-09-09T13:40:38.810Z,33.33
2022-09-09T13:43:06.507Z,32.94
2022-09-09T13:45:35.203Z,32.63
2022-09-09T13:48:10.450Z,31.30
2022-09-09T13:50:38.467Z,32.79
2022-09-09T13:53:05.939Z,32.72
2022-09-09T13:55:33.501Z,31.56
2022-09-09T13:58:02.989Z,32.64
2022-09-09T14:00:32.160Z,32.01
2022-09-09T14:03:03.028Z,31.94
2022-09-09T14:05:32.872Z,32.86
2022-09-09T14:08:01.641Z,32.53
2022-09-09T14:10:29.012Z,32.60
2022-09-09T14:12:57.016Z,31.66
2022-09-09T14:15:24.750Z,32.89
2022-09-09T14:17:53.164Z,31.84
2022-09-09T14:20:20.485Z,31.83
2022-09-09T14:22:48.149Z,32.26
2022-09-09T14:25:15.720Z,32.09
2022-09-09T14:27:43.404Z,32.18
2022-09-09T14:30:11.575Z,33.05
2022-09-09T14:32:38.899Z,33.08
2022-09-09T14:35:06.377Z,31.21
2022-09-09T14:37:33.967Z,32.46
2022-09-09T14:40:01.418Z,32.46
2022-09-09T14:42:30.362Z,33.13
2022-09-09T14:44:58.007Z,32.08
2022-09-09T14:47:25.326Z,32.49
2022-09-09T14:49:52.784Z,32.47
2022-09-09T14:52:20.768Z,32.27
2022-09-09T14:54:48.109Z,32.14
2022-09-09T14:57:15.400Z,32.30
2022-09-09T14:59:42.974Z,31.72
2022-09-09T15:02:10.423Z,32.23
2022-09-09T15:04:37.866Z,33.55
2022-09-09T15:07:05.435Z,32.08
2022-09-09T15:09:35.091Z,32.97
2022-09-09T15:12:03.792Z,32.40
2022-09-09T15:14:31.761Z,33.00
2022-09-09T15:16:59.040Z,31.28
2022-09-09T15:19:26.327Z,31.37
2022-09-09T15:21:53.892Z,31.55
2022-09-09T15:24:21.275Z,30.79
2022-09-09T15:26:48.843Z,30.25
2022-09-09T15:29:16.836Z,31.23
2022-09-09T15:31:44.134Z,30.72
2022-09-09T15:34:11.446Z,30.94
2022-09-09T15:36:41.208Z,30.21
2022-09-09T15:39:13.386Z,30.80
2022-09-09T15:41:41.183Z,29.99
2022-09-09T15:44:09.022Z,30.70
2022-09-09T15:46:47.387Z,31.19
2022-09-09T15:49:23.122Z,31.10
2022-09-09T15:51:58.567Z,30.98
2022-09-09T15:54:27.169Z,30.86
2022-09-09T15:56:57.025Z,31.37
2022-09-09T15:59:25.625Z,31.20
2022-09-09T16:01:53.316Z,31.43
2022-09-09T16:04:24.384Z,31.77
2022-09-09T16:06:53.040Z,31.84
2022-09-09T16:09:20.714Z,32.08
2022-09-09T16:11:48.548Z,32.84
2022-09-09T16:14:16.729Z,33.74
2022-09-09T16:16:44.333Z,34.82
2022-09-09T16:19:13.443Z,34.88
2022-09-09T16:21:43.651Z,35.06
2022-09-09T16:24:13.374Z,35.42
2022-09-09T16:26:44.795Z,35.86
2022-09-09T16:29:13.910Z,36.03
2022-09-09T16:31:41.883Z,36.94
2022-09-09T16:34:10.280Z,38.45
2022-09-09T16:36:40.006Z,37.80
2022-09-09T16:39:10.228Z,37.60
2022-09-09T16:41:39.057Z,37.96
2022-09-09T16:44:08.535Z,38.33
2022-09-09T16:46:41.574Z,39.41
2022-09-09T16:49:11.546Z,40.19
